Valletta, Malta
Current Conditions -  °F | °C
As of 5:15 AM on Tuesday 27 Jan 2015 (Local Time) from LMML Reporting Station
Overcast Overcast  
Wind Chill: 46°   Ceiling: 2300
Heat Index: 48°   Visibility: 6mi
Dew Point: 43°   Wind: 6mph
Humidity: 82%   Direction: 330°NNW
Pressure: 29.88"   Gusts: NA
Location:  35.91°N, 14.52°E
Report Text: LMML 270315Z AUTO 33005KT 9999NDV BKN023/// BKN027/// OVC035///09/06 Q1012
Loading
Personal Weather Stations






























Interactive Weather Map New forecast layout! Learn more

10-Day Weather Forecast

Advertisements
Track Severe Weather on mobile